Terminal Aerodrome Forecast
Issued by NWS

Home | Current Version | Previous Version | Text Only | Print | Product List | Glossary On
Versions: 1 2 3 4 5 6 7 8 9 10 11 12
000
FTUS42 TJSJ 240532
TAFKPK
TAF
TKPK 240532Z 2406/2506 07011KT P6SM FEW020
     FM241330 09014KT P6SM SCT022
      AMD NOT SKED TIL 241100=

USA.gov is the U.S. government's official web portal to all federal, state and local government web resources and services.